createdAt,value
2022-10-23T00:01:45.222Z,10.74
2022-10-23T00:04:25.166Z,10.81
2022-10-23T00:06:52.238Z,10.92
2022-10-23T00:09:24.258Z,10.97
2022-10-23T00:11:53.150Z,10.97
2022-10-23T00:14:25.080Z,10.96
2022-10-23T00:16:52.009Z,10.95
2022-10-23T00:19:18.775Z,10.91
2022-10-23T00:21:45.630Z,10.90
2022-10-23T00:24:12.340Z,10.91
2022-10-23T00:26:40.557Z,10.89
2022-10-23T00:29:10.191Z,10.83
2022-10-23T00:31:38.602Z,10.86
2022-10-23T00:34:08.068Z,10.87
2022-10-23T00:36:35.657Z,10.83
2022-10-23T00:39:02.445Z,10.82
2022-10-23T00:41:32.161Z,10.78
2022-10-23T00:44:19.022Z,10.71
2022-10-23T00:46:46.282Z,10.74
2022-10-23T00:49:15.056Z,10.72
2022-10-23T00:51:51.049Z,10.70
2022-10-23T00:54:26.857Z,10.69
2022-10-23T00:57:01.110Z,10.59
2022-10-23T00:59:29.663Z,10.53
2022-10-23T01:01:57.179Z,10.44
2022-10-23T01:04:27.148Z,10.39
2022-10-23T01:07:16.065Z,10.36
2022-10-23T01:10:16.031Z,10.34
2022-10-23T01:13:23.626Z,10.37
2022-10-23T01:16:08.874Z,10.39
2022-10-23T01:19:08.988Z,10.29
2022-10-23T01:22:12.310Z,10.25
2022-10-23T01:24:58.333Z,10.25
2022-10-23T01:27:39.744Z,10.17
2022-10-23T01:30:16.174Z,10.19
2022-10-23T01:33:01.962Z,10.16
2022-10-23T01:35:40.589Z,10.11
2022-10-23T01:38:25.483Z,10.08
2022-10-23T01:41:16.348Z,10.12
2022-10-23T01:44:01.720Z,10.08
2022-10-23T01:46:31.954Z,10.09
2022-10-23T01:49:02.435Z,10.00
2022-10-23T01:51:35.485Z,9.95
2022-10-23T01:54:09.535Z,9.93
2022-10-23T01:56:43.779Z,9.95
2022-10-23T01:59:18.410Z,9.94
2022-10-23T02:01:55.636Z,9.88
2022-10-23T02:04:33.941Z,9.84
2022-10-23T02:07:00.692Z,9.79
2022-10-23T02:09:27.767Z,9.83
2022-10-23T02:12:03.784Z,9.85
2022-10-23T02:14:50.819Z,9.80
2022-10-23T02:17:43.253Z,9.70
2022-10-23T02:20:28.407Z,9.65
2022-10-23T02:23:16.559Z,9.67
2022-10-23T02:26:12.581Z,9.70
2022-10-23T02:28:55.935Z,9.66
2022-10-23T02:31:29.424Z,9.69
2022-10-23T02:33:59.099Z,9.62
2022-10-23T02:36:25.867Z,9.60
2022-10-23T02:38:52.557Z,9.61
2022-10-23T02:41:41.074Z,9.59
2022-10-23T02:44:50.692Z,9.55
2022-10-23T02:47:52.845Z,9.56
2022-10-23T02:50:47.230Z,9.53
2022-10-23T02:53:42.719Z,9.56
2022-10-23T02:56:28.984Z,9.51
2022-10-23T02:59:33.100Z,9.53
2022-10-23T03:02:21.411Z,9.51
2022-10-23T03:04:51.850Z,9.45
2022-10-23T03:07:20.653Z,9.32
2022-10-23T03:09:47.517Z,9.32
2022-10-23T03:12:14.718Z,9.24
2022-10-23T03:14:41.339Z,9.33
2022-10-23T03:17:08.048Z,9.24
2022-10-23T03:19:34.728Z,9.17
2022-10-23T03:22:01.438Z,9.15
2022-10-23T03:24:28.166Z,9.22
2022-10-23T03:26:57.635Z,9.21
2022-10-23T03:29:24.275Z,9.10
2022-10-23T03:31:51.046Z,9.02
2022-10-23T03:34:19.303Z,9.01
2022-10-23T03:36:46.102Z,8.98
2022-10-23T03:39:12.967Z,9.01
2022-10-23T03:41:39.641Z,8.97
2022-10-23T03:44:06.345Z,9.00
2022-10-23T03:46:33.073Z,9.07
2022-10-23T03:48:59.984Z,9.13
2022-10-23T03:51:30.087Z,9.24
2022-10-23T03:54:03.016Z,9.39
2022-10-23T03:56:29.617Z,9.45
2022-10-23T03:58:58.247Z,9.50
2022-10-23T04:01:25.221Z,9.54
2022-10-23T04:03:52.157Z,9.57
2022-10-23T04:06:18.799Z,9.57
2022-10-23T04:08:45.954Z,9.57
2022-10-23T04:11:12.675Z,9.56
2022-10-23T04:13:39.348Z,9.53
2022-10-23T04:16:06.297Z,9.56
2022-10-23T04:18:32.932Z,9.56
2022-10-23T04:20:59.585Z,9.55
2022-10-23T04:23:26.244Z,9.53
2022-10-23T04:25:57.959Z,9.52
2022-10-23T04:28:25.668Z,9.50
2022-10-23T04:30:52.942Z,9.47
2022-10-23T04:33:21.489Z,9.47
2022-10-23T04:35:48.136Z,9.47
2022-10-23T04:38:14.797Z,9.44
2022-10-23T04:40:41.439Z,9.43
2022-10-23T04:43:08.167Z,9.42
2022-10-23T04:45:34.866Z,9.44
2022-10-23T04:48:01.867Z,9.42
2022-10-23T04:50:31.653Z,9.42
2022-10-23T04:52:58.914Z,9.38
2022-10-23T04:55:28.250Z,9.36
2022-10-23T04:57:54.864Z,9.36
2022-10-23T05:00:21.687Z,9.35
2022-10-23T05:02:48.321Z,9.31
2022-10-23T05:05:15.211Z,9.33
2022-10-23T05:07:42.256Z,9.30
2022-10-23T05:15:31.535Z,9.23
2022-10-23T06:15:43.440Z,9.21
2022-10-23T06:20:50.938Z,9.25
2022-10-23T06:28:42.536Z,9.33
2022-10-23T06:31:15.865Z,9.33
2022-10-23T06:36:35.788Z,9.37
2022-10-23T06:44:26.351Z,9.50
2022-10-23T06:52:41.670Z,9.67
2022-10-23T07:11:18.453Z,10.12
2022-10-23T07:30:04.339Z,10.27
2022-10-23T07:38:09.326Z,10.33
2022-10-23T08:34:41.909Z,11.15
2022-10-23T08:45:50.837Z,11.43
2022-10-23T08:55:00.922Z,11.56
2022-10-23T09:00:23.947Z,11.57
2022-10-23T09:02:55.313Z,11.65
2022-10-23T09:05:50.295Z,11.73
2022-10-23T09:08:34.304Z,11.70
2022-10-23T09:11:06.565Z,11.77
2022-10-23T09:13:58.129Z,11.90
2022-10-23T09:17:27.886Z,12.07
2022-10-23T09:20:19.937Z,11.97
2022-10-23T09:22:54.334Z,12.04
2022-10-23T09:25:31.543Z,12.14
2022-10-23T09:28:05.316Z,12.34
2022-10-23T09:30:42.516Z,12.58
2022-10-23T09:33:25.320Z,12.80
2022-10-23T09:36:08.665Z,12.96
2022-10-23T09:38:50.734Z,12.94
2022-10-23T09:41:39.838Z,12.89
2022-10-23T09:44:26.624Z,12.88
2022-10-23T09:47:12.995Z,13.05
2022-10-23T09:49:49.885Z,12.99
2022-10-23T09:52:37.383Z,13.39
2022-10-23T09:55:24.808Z,13.53
2022-10-23T10:00:52.273Z,13.23
2022-10-23T10:03:25.840Z,13.24
2022-10-23T10:06:04.194Z,13.27
2022-10-23T10:08:52.016Z,13.20
2022-10-23T10:11:41.091Z,13.39
2022-10-23T10:14:50.508Z,13.49
2022-10-23T10:20:59.026Z,13.30
2022-10-23T10:23:37.289Z,13.22
2022-10-23T10:29:34.129Z,13.41
2022-10-23T10:33:06.151Z,13.52
2022-10-23T10:36:40.669Z,13.71
2022-10-23T10:40:34.318Z,14.08
2022-10-23T10:43:52.225Z,14.06
2022-10-23T10:46:51.236Z,14.20
2022-10-23T10:49:53.102Z,14.68
2022-10-23T10:53:09.215Z,14.99
2022-10-23T10:55:42.164Z,14.97
2022-10-23T10:58:52.680Z,14.99
2022-10-23T11:01:33.782Z,15.03
2022-10-23T11:04:36.518Z,15.18
2022-10-23T11:07:18.814Z,15.38
2022-10-23T11:09:50.482Z,15.58
2022-10-23T11:12:27.485Z,15.68
2022-10-23T11:15:04.008Z,15.70
2022-10-23T11:17:44.397Z,15.69
2022-10-23T11:20:59.956Z,15.70
2022-10-23T11:24:18.445Z,15.94
2022-10-23T11:27:54.072Z,16.05
2022-10-23T11:31:18.981Z,16.08
2022-10-23T11:34:27.578Z,16.20
2022-10-23T11:37:01.567Z,15.95
2022-10-23T11:39:33.688Z,15.86
2022-10-23T11:42:35.383Z,15.74
2022-10-23T11:45:22.190Z,15.53
2022-10-23T11:48:34.682Z,15.52
2022-10-23T11:51:05.250Z,15.39
2022-10-23T11:53:36.602Z,15.37
2022-10-23T11:56:11.990Z,15.38
2022-10-23T11:58:51.832Z,15.52
2022-10-23T12:01:41.645Z,15.54
2022-10-23T12:04:16.458Z,15.52
2022-10-23T12:06:52.702Z,15.45
2022-10-23T12:09:36.058Z,15.40
2022-10-23T12:12:41.301Z,15.37
2022-10-23T12:15:16.317Z,15.46
2022-10-23T12:17:49.151Z,15.38
2022-10-23T12:20:42.119Z,15.20
2022-10-23T12:24:05.912Z,15.24
2022-10-23T12:27:22.308Z,15.33
2022-10-23T12:30:12.627Z,15.29
2022-10-23T12:33:29.171Z,15.27
2022-10-23T12:36:45.448Z,15.37
2022-10-23T12:39:39.025Z,15.58
2022-10-23T12:42:22.485Z,15.69
2022-10-23T12:45:18.780Z,15.65
2022-10-23T12:47:49.079Z,15.89
2022-10-23T12:50:35.861Z,15.93
2022-10-23T12:53:08.220Z,15.96
2022-10-23T12:56:04.851Z,16.07
2022-10-23T12:58:35.421Z,16.12
2022-10-23T13:01:07.037Z,16.28
2022-10-23T13:03:35.769Z,16.34
2022-10-23T13:06:04.450Z,16.31
2022-10-23T13:08:50.201Z,16.27
2022-10-23T13:11:21.983Z,16.30
2022-10-23T13:13:51.648Z,16.19
2022-10-23T13:16:35.182Z,16.14
2022-10-23T13:19:02.005Z,16.00
2022-10-23T13:21:36.154Z,15.80
2022-10-23T13:24:03.096Z,15.67
2022-10-23T13:26:52.105Z,15.69
2022-10-23T13:29:35.049Z,15.56
2022-10-23T13:32:21.746Z,15.43
2022-10-23T13:35:04.377Z,15.40
2022-10-23T13:37:46.245Z,15.27
2022-10-23T13:40:27.800Z,14.97
2022-10-23T13:51:17.115Z,14.88
2022-10-23T13:53:44.049Z,14.77
2022-10-23T13:56:19.123Z,14.76
2022-10-23T13:58:50.804Z,14.73
2022-10-23T14:01:27.658Z,14.72
2022-10-23T14:03:57.734Z,14.62
2022-10-23T14:06:24.939Z,14.51
2022-10-23T14:08:52.192Z,14.48
2022-10-23T14:11:20.629Z,14.38
2022-10-23T14:13:48.928Z,14.32
2022-10-23T14:16:23.302Z,14.29
2022-10-23T14:18:50.222Z,14.22
2022-10-23T14:21:24.373Z,14.16
2022-10-23T14:23:53.260Z,14.19
2022-10-23T14:26:30.376Z,14.12
2022-10-23T14:29:02.352Z,14.08
2022-10-23T14:31:36.468Z,14.10
2022-10-23T14:34:03.136Z,14.05
2022-10-23T14:36:38.783Z,14.01
2022-10-23T14:39:20.261Z,13.94
2022-10-23T14:41:47.160Z,13.95
2022-10-23T14:44:14.183Z,13.88
2022-10-23T14:46:41.279Z,13.88
2022-10-23T14:49:07.919Z,13.84
2022-10-23T14:51:35.297Z,13.84
2022-10-23T14:54:07.742Z,13.79
2022-10-23T14:56:39.343Z,13.79
2022-10-23T14:59:06.824Z,13.78
2022-10-23T15:01:45.264Z,13.74
2022-10-23T15:04:15.237Z,13.74
2022-10-23T15:06:46.622Z,13.70
2022-10-23T15:09:15.054Z,13.69
2022-10-23T15:11:42.401Z,13.68
2022-10-23T15:14:09.141Z,13.65
2022-10-23T15:16:41.465Z,13.57
2022-10-23T15:19:18.095Z,13.57
2022-10-23T15:21:47.992Z,13.50
2022-10-23T15:24:17.566Z,13.48
2022-10-23T15:26:47.732Z,13.50
2022-10-23T15:29:15.165Z,13.49
2022-10-23T15:31:55.689Z,13.43
2022-10-23T15:34:28.236Z,13.39
2022-10-23T15:36:59.431Z,13.37
2022-10-23T15:39:33.905Z,13.31
2022-10-23T15:42:04.400Z,13.29
2022-10-23T15:44:36.417Z,13.31
2022-10-23T15:47:03.458Z,13.26
2022-10-23T15:49:30.530Z,13.23
2022-10-23T15:51:57.915Z,13.19
2022-10-23T15:54:28.141Z,13.15
2022-10-23T15:56:57.768Z,13.12
2022-10-23T15:59:26.136Z,13.13
2022-10-23T16:01:53.570Z,13.17
2022-10-23T16:04:23.493Z,13.13
2022-10-23T16:06:50.912Z,13.16
2022-10-23T16:09:17.983Z,13.17
2022-10-23T16:11:48.469Z,13.20
2022-10-23T16:14:21.360Z,13.15
2022-10-23T16:16:48.158Z,13.18
2022-10-23T16:19:20.715Z,13.11
2022-10-23T16:21:47.515Z,13.02
2022-10-23T16:24:17.416Z,13.09
2022-10-23T16:26:51.774Z,13.09
2022-10-23T16:29:21.955Z,13.12
2022-10-23T16:31:50.975Z,13.10
2022-10-23T16:34:21.903Z,13.06
2022-10-23T16:36:49.612Z,13.10
2022-10-23T16:39:19.906Z,13.08
2022-10-23T16:41:46.711Z,13.05
2022-10-23T16:44:13.462Z,13.06
2022-10-23T16:46:40.182Z,13.05
2022-10-23T16:49:08.849Z,13.09
2022-10-23T16:51:35.735Z,13.11
2022-10-23T16:54:02.541Z,13.13
2022-10-23T16:56:30.144Z,13.09
2022-10-23T17:01:33.235Z,13.10
2022-10-23T17:04:00.251Z,13.11
2022-10-23T17:06:33.058Z,13.11
2022-10-23T17:09:02.535Z,13.11
2022-10-23T17:11:37.473Z,13.13
2022-10-23T17:14:18.540Z,13.18
2022-10-23T17:16:51.966Z,13.17
2022-10-23T17:19:43.755Z,13.27
2022-10-23T17:22:12.659Z,13.33
2022-10-23T17:24:44.199Z,13.36
2022-10-23T17:27:13.154Z,13.30
2022-10-23T17:34:48.050Z,13.26
2022-10-23T17:37:14.876Z,13.20
2022-10-23T17:39:47.845Z,13.21
2022-10-23T17:42:14.759Z,13.20
2022-10-23T17:44:41.397Z,13.17
2022-10-23T17:47:08.086Z,13.19
2022-10-23T17:49:34.841Z,13.18
2022-10-23T17:52:02.183Z,13.26
2022-10-23T17:54:32.312Z,13.31
2022-10-23T17:57:06.323Z,13.30
2022-10-23T17:59:33.576Z,13.31
2022-10-23T18:02:00.805Z,13.32
2022-10-23T18:04:27.754Z,13.32
2022-10-23T18:06:54.553Z,13.30
2022-10-23T18:09:23.296Z,13.28
2022-10-23T18:11:53.239Z,13.22
2022-10-23T18:14:22.358Z,13.21
2022-10-23T18:16:53.480Z,13.23
2022-10-23T18:19:20.419Z,13.17
2022-10-23T18:21:50.737Z,13.11
2022-10-23T18:24:18.745Z,13.14
2022-10-23T18:26:48.788Z,13.13
2022-10-23T18:29:17.734Z,13.06
2022-10-23T18:31:48.481Z,13.12
2022-10-23T18:34:23.297Z,13.29
2022-10-23T18:36:53.424Z,13.29
2022-10-23T18:39:24.519Z,13.32
2022-10-23T18:41:58.166Z,13.28
2022-10-23T18:44:31.965Z,13.38
2022-10-23T18:47:00.147Z,13.29
2022-10-23T18:49:30.643Z,13.30
2022-10-23T18:51:58.475Z,13.41
2022-10-23T18:54:25.242Z,13.35
2022-10-23T18:56:52.230Z,13.38
2022-10-23T18:59:23.144Z,13.35
2022-10-23T19:01:53.311Z,13.33
2022-10-23T19:04:20.238Z,13.31
2022-10-23T19:06:49.450Z,13.30
2022-10-23T19:09:17.788Z,13.37
2022-10-23T19:11:46.779Z,13.41
2022-10-23T19:14:13.947Z,13.37
2022-10-23T19:16:59.780Z,13.42
2022-10-23T19:19:40.519Z,13.45
2022-10-23T19:22:11.380Z,13.42
2022-10-23T19:24:56.244Z,13.44
2022-10-23T19:27:25.624Z,13.42
2022-10-23T19:29:55.177Z,13.43
2022-10-23T19:32:24.676Z,13.40
2022-10-23T19:34:51.348Z,13.44
2022-10-23T19:37:18.208Z,13.43
2022-10-23T19:39:44.795Z,13.42
2022-10-23T19:42:12.396Z,13.48
2022-10-23T19:44:39.000Z,13.42
2022-10-23T19:47:05.887Z,13.44
2022-10-23T19:49:34.944Z,13.47
2022-10-23T19:52:01.646Z,13.45
2022-10-23T19:54:28.417Z,13.48
2022-10-23T19:56:57.297Z,13.46
2022-10-23T19:59:24.132Z,13.43
2022-10-23T20:01:53.621Z,13.40
2022-10-23T20:04:20.318Z,13.38
2022-10-23T20:06:47.855Z,13.35
2022-10-23T20:09:14.698Z,13.27
2022-10-23T20:11:43.596Z,13.26
2022-10-23T20:14:10.253Z,13.25
2022-10-23T20:16:39.839Z,13.27
2022-10-23T20:19:13.946Z,13.30
2022-10-23T20:21:43.721Z,13.37
2022-10-23T20:24:14.847Z,13.35
2022-10-23T20:26:48.758Z,13.32
2022-10-23T20:29:18.425Z,13.27
2022-10-23T20:31:45.091Z,13.23
2022-10-23T20:34:12.110Z,13.21
2022-10-23T20:36:47.621Z,13.23
2022-10-23T20:39:25.600Z,13.27
2022-10-23T20:41:55.267Z,13.29
2022-10-23T20:44:24.984Z,13.26
2022-10-23T20:46:52.183Z,13.29
2022-10-23T20:49:19.725Z,13.30
2022-10-23T20:51:56.149Z,13.31
2022-10-23T20:54:28.641Z,13.28
2022-10-23T20:56:57.033Z,13.30
2022-10-23T20:59:24.098Z,13.30
2022-10-23T21:01:55.433Z,13.28
2022-10-23T21:04:30.825Z,13.25
2022-10-23T21:07:14.116Z,13.23
2022-10-23T21:09:40.833Z,13.25
2022-10-23T21:12:09.221Z,13.22
2022-10-23T21:14:36.760Z,13.25
2022-10-23T21:17:04.570Z,13.24
2022-10-23T21:19:33.352Z,13.19
2022-10-23T21:22:00.171Z,13.17
2022-10-23T21:24:26.812Z,13.13
2022-10-23T21:26:53.447Z,13.17
2022-10-23T21:29:23.318Z,13.19
2022-10-23T21:32:01.402Z,13.15
2022-10-23T21:34:31.536Z,13.16
2022-10-23T21:37:14.633Z,13.15
2022-10-23T21:39:44.534Z,13.13
2022-10-23T21:42:14.295Z,13.12
2022-10-23T21:44:41.406Z,13.11
2022-10-23T21:47:08.321Z,13.10
2022-10-23T21:49:35.270Z,13.10
2022-10-23T21:52:01.976Z,13.06
2022-10-23T21:54:28.649Z,13.03
2022-10-23T21:56:55.319Z,13.02
2022-10-23T21:59:30.285Z,13.03
2022-10-23T22:01:59.050Z,13.05
2022-10-23T22:04:25.908Z,13.06
2022-10-23T22:06:53.269Z,13.05
2022-10-23T22:09:22.146Z,13.06
2022-10-23T22:11:54.081Z,13.00
2022-10-23T22:14:22.482Z,13.02
2022-10-23T22:16:49.894Z,13.02
2022-10-23T22:19:18.431Z,13.01
2022-10-23T22:21:47.022Z,13.00
2022-10-23T22:24:13.925Z,13.03
2022-10-23T22:26:48.481Z,13.03
2022-10-23T22:29:23.258Z,13.05
2022-10-23T22:31:53.752Z,13.01
2022-10-23T22:34:48.332Z,13.01
2022-10-23T22:37:13.245Z,12.98
2022-10-23T22:39:40.643Z,12.96
2022-10-23T22:42:08.343Z,12.97
2022-10-23T22:44:38.043Z,12.97
2022-10-23T22:47:05.109Z,12.99
2022-10-23T22:49:31.685Z,12.97
2022-10-23T22:51:58.463Z,12.95
2022-10-23T22:54:25.144Z,12.92
2022-10-23T22:56:51.900Z,12.90
2022-10-23T22:59:18.545Z,12.93
2022-10-23T23:01:47.828Z,12.90
2022-10-23T23:04:37.892Z,12.91
2022-10-23T23:07:11.457Z,12.90
2022-10-23T23:09:43.556Z,12.91
2022-10-23T23:12:15.078Z,12.93
2022-10-23T23:14:43.099Z,12.96
2022-10-23T23:17:10.862Z,12.96
2022-10-23T23:19:37.784Z,12.98
2022-10-23T23:22:05.113Z,13.00
2022-10-23T23:24:35.058Z,12.98
2022-10-23T23:27:02.006Z,13.01
2022-10-23T23:29:29.443Z,13.05
2022-10-23T23:31:56.099Z,13.02
2022-10-23T23:34:22.753Z,13.01
2022-10-23T23:36:49.469Z,13.02
2022-10-23T23:39:16.604Z,13.02
2022-10-23T23:41:43.312Z,12.94
2022-10-23T23:44:10.372Z,13.00
2022-10-23T23:46:37.442Z,12.97
2022-10-23T23:49:04.146Z,12.92
2022-10-23T23:51:32.323Z,12.86
2022-10-23T23:53:59.020Z,12.81
2022-10-23T23:56:25.975Z,12.83
2022-10-23T23:58:52.653Z,12.77
